Time;durP1;ratioP1;P1;durP2;ratioP2;P2;SDS_P1;SDS_P2;PMS_P1;PMS_P2;Temp;Humidity;BMP_temperature;BMP_pressure;BME280_temperature;BME280_humidity;BME280_pressure;Samples;Min_cycle;Max_cycle;Signal;HPM_P1;HPM_P2
2023/10/20 00:00:50;;;;;;;;;19.20;18.60;;;;;17.77;43.82;98057.06;5063391;28;8965;-77
2023/10/20 00:03:33;;;;;;;;;18.80;14.40;;;;;17.81;43.78;98058.53;5048017;28;8840;-75
2023/10/20 00:06:04;;;;;;;;;17.40;15.80;;;;;17.80;43.99;98054.19;5068019;28;8850;-76
2023/10/20 00:08:33;;;;;;;;;13.00;10.00;;;;;17.80;43.89;98054.19;5083782;28;8843;-75
2023/10/20 00:11:05;;;;;;;;;15.80;15.80;;;;;17.87;43.94;98047.47;5068303;28;8931;-73
2023/10/20 00:13:34;;;;;;;;;13.40;13.40;;;;;17.78;44.02;98042.81;5084074;28;9614;-74
2023/10/20 00:16:06;;;;;;;;;17.00;13.20;;;;;17.73;44.02;98042.31;5033568;28;8823;-75
2023/10/20 00:18:35;;;;;;;;;15.60;14.40;;;;;17.78;44.12;98038.34;5066865;28;8931;-76
2023/10/20 00:21:04;;;;;;;;;15.00;15.00;;;;;17.85;44.01;98027.25;5062481;28;8898;-77
2023/10/20 00:23:33;;;;;;;;;13.60;13.60;;;;;17.88;44.14;98022.56;5048198;28;8857;-73
2023/10/20 00:26:02;;;;;;;;;13.40;13.40;;;;;17.75;44.32;98021.78;5063382;28;8840;-75
2023/10/20 00:28:31;;;;;;;;;14.40;14.40;;;;;17.82;43.98;98025.69;5053925;28;8846;-74
2023/10/20 00:31:00;;;;;;;;;14.80;13.40;;;;;17.68;44.52;98010.75;5066744;28;8842;-75
2023/10/20 00:33:30;;;;;;;;;14.40;14.40;;;;;17.64;44.49;98024.41;5066841;28;8850;-75
2023/10/20 00:35:59;;;;;;;;;13.40;13.00;;;;;17.56;44.68;98015.19;5064921;28;8899;-76
2023/10/20 00:38:28;;;;;;;;;16.20;14.20;;;;;17.42;44.97;98019.81;5067879;28;8858;-74
2023/10/20 00:40:57;;;;;;;;;15.00;11.80;;;;;17.55;44.83;98017.94;5083280;28;8854;-75
2023/10/20 00:43:35;;;;;;;;;16.60;15.60;;;;;17.49;44.90;98011.28;5068057;28;8854;-74
2023/10/20 00:46:05;;;;;;;;;13.60;13.00;;;;;17.37;45.29;98014.84;5083606;28;8956;-75
2023/10/20 00:48:36;;;;;;;;;13.20;13.00;;;;;17.36;45.44;98010.50;5067789;28;8857;-76
2023/10/20 00:51:07;;;;;;;;;14.20;12.60;;;;;17.26;45.90;98001.50;5065086;28;8850;-74
2023/10/20 00:53:36;;;;;;;;;13.00;13.00;;;;;17.24;45.76;98006.91;5066058;28;8887;-74
2023/10/20 00:56:07;;;;;;;;;4.60;3.60;;;;;17.23;45.87;98015.84;5083395;28;8925;-75
2023/10/20 00:58:37;;;;;;;;;11.80;11.80;;;;;17.19;45.87;98011.69;5066425;28;8858;-74
2023/10/20 01:01:06;;;;;;;;;13.80;13.80;;;;;17.23;45.84;98012.31;5066038;28;8882;-76
2023/10/20 01:03:36;;;;;;;;;14.80;13.00;;;;;17.23;45.89;97999.03;5066253;28;8942;-76
2023/10/20 01:06:06;;;;;;;;;16.20;14.20;;;;;17.14;46.19;98001.41;5069974;28;8859;-76
2023/10/20 01:08:35;;;;;;;;;10.00;9.80;;;;;17.21;45.88;98001.81;5063489;28;8841;-70
2023/10/20 01:11:05;;;;;;;;;14.20;13.00;;;;;17.15;46.12;98003.09;5066318;28;8856;-69
2023/10/20 01:13:34;;;;;;;;;14.20;14.00;;;;;17.15;46.39;97999.59;5015570;28;8934;-68
2023/10/20 01:16:04;;;;;;;;;8.20;8.20;;;;;17.13;46.40;98005.03;5050700;28;8877;-68
2023/10/20 01:18:33;;;;;;;;;13.40;12.20;;;;;17.16;46.29;98001.31;5066116;28;8892;-70
2023/10/20 01:21:04;;;;;;;;;10.00;9.40;;;;;17.13;46.48;98005.03;5066309;28;8829;-69
2023/10/20 01:23:33;;;;;;;;;11.60;10.80;;;;;17.09;46.42;97998.25;5061847;28;8842;-69
2023/10/20 01:26:03;;;;;;;;;14.80;14.20;;;;;17.24;46.25;97996.28;5051666;28;8838;-70
2023/10/20 01:28:32;;;;;;;;;13.60;13.00;;;;;17.24;46.32;97995.44;5069433;28;8939;-69
2023/10/20 01:31:01;;;;;;;;;16.60;13.40;;;;;17.24;46.29;97995.44;5052307;28;8846;-68
2023/10/20 01:33:29;;;;;;;;;14.00;14.00;;;;;17.34;46.10;97994.69;5069175;28;9012;-69
2023/10/20 01:35:59;;;;;;;;;17.40;11.40;;;;;17.33;45.96;97986.84;5087909;28;8846;-69
2023/10/20 01:38:27;;;;;;;;;12.60;11.40;;;;;17.36;45.87;97986.59;5073172;28;8856;-69
2023/10/20 01:40:56;;;;;;;;;11.80;11.20;;;;;17.58;45.37;97984.03;5088091;28;8862;-69
2023/10/20 01:43:26;;;;;;;;;10.80;10.80;;;;;17.61;45.49;97995.38;5087803;28;8861;-70
2023/10/20 01:45:56;;;;;;;;;14.20;14.20;;;;;17.64;45.38;97990.69;5054727;28;8854;-68
2023/10/20 01:48:24;;;;;;;;;10.20;9.40;;;;;17.65;45.31;97984.44;5070963;28;8911;-68
2023/10/20 01:50:53;;;;;;;;;11.00;11.00;;;;;17.58;45.31;97983.19;5070974;28;8854;-69
2023/10/20 01:53:22;;;;;;;;;13.80;11.20;;;;;17.67;45.26;97990.47;5086362;28;9563;-68
2023/10/20 01:55:51;;;;;;;;;11.60;10.40;;;;;17.63;45.28;97982.81;5038203;28;9639;-69
2023/10/20 01:58:21;;;;;;;;;15.00;13.40;;;;;17.61;45.34;97974.13;5070811;28;8850;-69
2023/10/20 02:00:52;;;;;;;;;9.20;9.20;;;;;17.67;45.13;97971.88;5083182;28;8856;-69
2023/10/20 02:03:23;;;;;;;;;6.60;6.60;;;;;17.61;45.53;97971.47;5087786;28;8845;-69
2023/10/20 02:05:52;;;;;;;;;10.20;10.00;;;;;17.56;45.40;97964.69;5087216;28;8842;-70
2023/10/20 02:08:21;;;;;;;;;11.80;10.40;;;;;17.55;45.68;97970.13;5077554;28;8850;-68
2023/10/20 02:10:51;;;;;;;;;9.80;9.80;;;;;17.57;45.36;97966.41;5068561;28;8838;-69
2023/10/20 02:13:19;;;;;;;;;10.60;9.20;;;;;17.55;45.55;97956.84;5034887;28;8951;-69
2023/10/20 02:15:50;;;;;;;;;12.40;11.40;;;;;17.66;45.34;97956.88;5063778;28;8843;-70
2023/10/20 02:18:20;;;;;;;;;10.80;9.60;;;;;17.63;45.28;97959.78;5066742;28;8871;-70
2023/10/20 02:21:03;;;;;;;;;10.20;10.00;;;;;17.75;45.05;97955.34;5066751;28;8852;-70
2023/10/20 02:23:32;;;;;;;;;13.60;10.60;;;;;17.69;45.08;97961.13;5050360;28;8921;-68
2023/10/20 02:26:05;;;;;;;;;12.00;11.60;;;;;17.60;45.45;97951.19;5066903;28;8859;-69
2023/10/20 02:28:34;;;;;;;;;11.00;11.00;;;;;17.70;45.25;97946.88;5053869;28;8865;-69
2023/10/20 02:31:12;;;;;;;;;10.00;10.00;;;;;17.70;45.19;97939.75;5068959;28;8863;-70
2023/10/20 02:33:42;;;;;;;;;12.20;10.20;;;;;17.59;45.45;97942.38;5017574;28;8852;-70
2023/10/20 02:36:16;;;;;;;;;11.00;9.40;;;;;17.49;45.73;97934.22;5066512;28;8876;-70
2023/10/20 02:38:45;;;;;;;;;9.40;9.20;;;;;17.54;45.54;97939.22;5034050;28;8848;-69
2023/10/20 02:41:15;;;;;;;;;12.40;11.00;;;;;17.54;45.61;97942.72;5066643;28;9012;-71
2023/10/20 02:43:44;;;;;;;;;11.00;11.00;;;;;17.51;45.68;97947.41;5076180;28;8880;-68
2023/10/20 02:46:13;;;;;;;;;10.80;9.60;;;;;17.51;45.61;97948.28;5068291;28;8867;-68
2023/10/20 02:48:44;;;;;;;;;9.40;9.40;;;;;17.44;46.03;97946.16;5049084;28;8888;-69
2023/10/20 02:51:15;;;;;;;;;13.60;12.40;;;;;17.36;46.18;97937.00;5047679;28;8848;-68
2023/10/20 02:53:44;;;;;;;;;11.80;11.80;;;;;17.40;46.02;97932.31;5064249;28;8900;-68
2023/10/20 02:56:14;;;;;;;;;9.80;7.80;;;;;17.41;45.92;97938.44;5048706;28;8876;-69
2023/10/20 02:58:44;;;;;;;;;10.20;9.80;;;;;17.47;45.87;97927.34;5049220;28;8852;-68
2023/10/20 03:01:14;;;;;;;;;13.00;10.00;;;;;17.44;46.01;97923.13;5053643;28;9656;-68
2023/10/20 03:03:45;;;;;;;;;9.00;8.40;;;;;17.44;45.97;97925.78;5068789;28;8866;-68
2023/10/20 03:06:14;;;;;;;;;15.40;13.60;;;;;17.36;46.10;97929.03;5084452;28;8858;-68
2023/10/20 03:08:43;;;;;;;;;13.40;13.40;;;;;17.40;46.25;97937.59;5067016;28;8908;-70
2023/10/20 03:11:12;;;;;;;;;11.40;11.00;;;;;17.44;46.01;97936.41;5067148;28;8985;-69
2023/10/20 03:13:41;;;;;;;;;11.40;9.60;;;;;17.42;45.96;97935.69;5049607;28;8872;-68
2023/10/20 03:16:10;;;;;;;;;11.20;11.00;;;;;17.41;46.14;97944.59;5049931;28;8827;-71
2023/10/20 03:18:39;;;;;;;;;11.00;10.80;;;;;17.38;46.29;97931.53;5067287;28;8842;-70
2023/10/20 03:21:10;;;;;;;;;11.00;11.00;;;;;17.34;46.46;97930.06;5068472;28;9628;-69
2023/10/20 03:23:43;;;;;;;;;9.00;9.00;;;;;17.30;46.35;97920.66;5068452;28;8880;-68
2023/10/20 03:26:13;;;;;;;;;13.40;10.80;;;;;17.28;46.46;97935.84;5050644;28;8850;-69
2023/10/20 03:28:41;;;;;;;;;10.60;10.60;;;;;17.23;46.64;97925.56;5067511;28;8838;-67
2023/10/20 03:31:11;;;;;;;;;12.80;11.60;;;;;17.13;46.83;97917.41;5065280;28;8830;-68
2023/10/20 03:33:40;;;;;;;;;15.80;13.40;;;;;17.10;47.15;97916.81;5067201;28;8850;-69
2023/10/20 03:36:12;;;;;;;;;12.40;11.00;;;;;17.13;46.97;97917.41;5066899;28;8862;-68
2023/10/20 03:38:42;;;;;;;;;10.40;9.80;;;;;17.07;47.35;97906.41;5000941;28;8901;-69
2023/10/20 03:41:11;;;;;;;;;14.20;12.40;;;;;17.16;47.12;97909.22;5066854;28;8987;-68
2023/10/20 03:43:40;;;;;;;;;13.40;13.40;;;;;17.14;47.08;97916.47;5067846;28;8900;-69
2023/10/20 03:46:13;;;;;;;;;9.20;8.80;;;;;17.11;47.08;97914.00;5068046;28;8842;-70
2023/10/20 03:48:42;;;;;;;;;11.40;8.80;;;;;17.15;47.08;97910.16;5031444;28;8857;-70
2023/10/20 03:51:14;;;;;;;;;10.40;9.40;;;;;17.12;47.27;97909.56;5066892;28;8842;-69
2023/10/20 03:53:47;;;;;;;;;9.40;9.40;;;;;17.00;47.45;97919.28;5067927;28;8838;-68
2023/10/20 03:56:18;;;;;;;;;11.20;10.20;;;;;16.94;47.70;97915.25;5066684;28;8866;-70
2023/10/20 03:58:48;;;;;;;;;9.20;9.20;;;;;17.01;47.61;97907.72;5067977;28;8842;-70
2023/10/20 04:01:17;;;;;;;;;11.60;9.60;;;;;17.07;47.34;97915.22;5071349;28;8827;-71
2023/10/20 04:03:50;;;;;;;;;14.60;10.00;;;;;17.13;47.20;97925.38;5067856;28;8842;-68
2023/10/20 04:06:22;;;;;;;;;10.00;9.60;;;;;17.06;47.67;97928.59;5068027;28;8870;-76
2023/10/20 04:08:51;;;;;;;;;9.20;9.20;;;;;17.09;47.36;97931.03;5033193;28;8884;-76
2023/10/20 04:11:20;;;;;;;;;9.00;8.40;;;;;17.05;47.46;97925.09;5017165;28;8927;-76
2023/10/20 04:13:52;;;;;;;;;10.40;10.40;;;;;16.97;47.86;97925.66;5068621;28;8915;-77
2023/10/20 04:16:23;;;;;;;;;11.60;10.80;;;;;16.94;47.80;97923.22;5059010;28;9634;-76
2023/10/20 04:18:52;;;;;;;;;13.60;13.60;;;;;16.88;47.87;97914.88;5047200;28;8857;-76
2023/10/20 04:21:23;;;;;;;;;9.20;8.60;;;;;16.88;48.08;97912.22;5073676;28;9592;-76
2023/10/20 04:23:54;;;;;;;;;11.20;10.20;;;;;16.99;47.88;97922.91;5069999;28;8862;-76
2023/10/20 04:26:23;;;;;;;;;11.80;11.20;;;;;16.94;47.72;97919.72;5083980;28;9600;-77
2023/10/20 04:29:07;;;;;;;;;10.60;9.20;;;;;16.92;47.97;97914.53;5067844;28;8857;-77
2023/10/20 04:43:19;;;;;;;;;9.40;9.40;;;;;16.96;47.72;97904.53;5055744;28;8966;-79
2023/10/20 04:49:14;;;;;;;;;11.60;10.80;;;;;17.04;47.74;97914.59;5051288;28;8958;-78
2023/10/20 04:51:45;;;;;;;;;8.60;8.40;;;;;17.08;47.42;97902.78;5065014;28;8881;-76
2023/10/20 04:54:22;;;;;;;;;9.80;9.60;;;;;17.22;47.18;97907.91;5070349;28;8850;-77
2023/10/20 04:59:36;;;;;;;;;11.20;10.20;;;;;17.33;46.87;97912.47;5013533;28;8851;-76
2023/10/20 05:02:13;;;;;;;;;6.80;6.80;;;;;17.33;46.73;97908.00;5029575;28;8871;-78
2023/10/20 05:04:46;;;;;;;;;8.20;6.40;;;;;17.34;46.78;97919.44;5029138;28;8863;-78
2023/10/20 05:07:17;;;;;;;;;11.40;8.60;;;;;17.40;46.55;97911.06;4995637;28;8955;-76
2023/10/20 05:09:54;;;;;;;;;11.60;9.00;;;;;17.53;46.30;97911.81;5032052;28;9658;-78
2023/10/20 05:12:23;;;;;;;;;10.20;9.40;;;;;17.55;46.12;97925.81;5029332;28;9978;-77
2023/10/20 05:14:52;;;;;;;;;10.20;9.80;;;;;17.58;46.04;97916.75;5012824;28;8832;-76
2023/10/20 05:17:21;;;;;;;;;8.80;8.00;;;;;17.67;45.92;97926.69;5028246;28;8956;-76
2023/10/20 05:19:53;;;;;;;;;10.20;8.60;;;;;17.68;45.86;97915.09;5028725;28;8870;-77
2023/10/20 05:22:22;;;;;;;;;11.20;10.20;;;;;17.74;45.82;97917.28;5012189;28;9593;-78
2023/10/20 05:24:53;;;;;;;;;12.80;9.60;;;;;17.76;45.59;97922.50;5028442;28;8966;-76
2023/10/20 05:27:22;;;;;;;;;11.00;8.80;;;;;17.76;45.77;97917.19;5011916;28;8953;-76
2023/10/20 05:29:52;;;;;;;;;9.20;9.20;;;;;17.83;45.44;97910.41;5011650;28;8868;-77
2023/10/20 05:32:20;;;;;;;;;12.20;8.80;;;;;17.86;45.40;97925.28;5000586;28;8898;-76
2023/10/20 05:34:53;;;;;;;;;10.20;9.60;;;;;17.96;45.09;97924.44;5014599;28;8871;-75
2023/10/20 05:37:22;;;;;;;;;10.80;10.00;;;;;18.12;44.90;97931.28;5056831;28;8958;-75
2023/10/20 05:39:53;;;;;;;;;11.20;10.40;;;;;18.21;44.58;97932.34;5024463;28;8867;-75
2023/10/20 05:42:22;;;;;;;;;10.80;10.40;;;;;18.27;44.44;97930.06;5045105;28;8998;-76
2023/10/20 05:45:03;;;;;;;;;7.00;7.00;;;;;18.29;44.41;97928.16;5067569;28;9437;-74
2023/10/20 05:47:33;;;;;;;;;12.00;10.20;;;;;18.32;44.37;97929.69;5065562;28;8857;-78
2023/10/20 05:50:03;;;;;;;;;13.00;10.20;;;;;18.46;44.02;97934.78;5070253;28;8850;-77
2023/10/20 05:52:33;;;;;;;;;5.00;3.80;;;;;18.44;44.09;97930.53;5036342;28;8927;-77
2023/10/20 05:55:04;;;;;;;;;10.00;9.60;;;;;18.49;43.99;97936.34;5057468;28;8842;-78
2023/10/20 05:57:34;;;;;;;;;8.40;7.00;;;;;18.48;44.04;97940.84;5020199;28;8854;-78
2023/10/20 06:00:05;;;;;;;;;7.20;7.20;;;;;18.55;43.73;97944.72;5052372;28;8901;-78
2023/10/20 06:02:34;;;;;;;;;8.80;7.60;;;;;18.59;43.84;97936.47;5048136;28;8853;-79
2023/10/20 06:05:04;;;;;;;;;10.00;9.60;;;;;18.56;43.91;97948.19;5053405;28;8874;-79
2023/10/20 06:07:33;;;;;;;;;11.20;9.80;;;;;18.66;43.62;97945.66;5070371;28;8885;-79
2023/10/20 06:10:04;;;;;;;;;12.80;10.60;;;;;18.65;43.72;97959.94;5048778;28;8857;-78
2023/10/20 06:12:35;;;;;;;;;9.60;8.40;;;;;18.77;43.67;97960.78;5066081;28;8894;-79
2023/10/20 06:15:06;;;;;;;;;10.00;9.20;;;;;18.86;43.26;97952.06;5068227;28;8854;-80
2023/10/20 06:17:36;;;;;;;;;9.40;9.00;;;;;18.94;43.20;97965.59;5029765;28;8916;-78
2023/10/20 06:20:07;;;;;;;;;10.00;10.00;;;;;18.95;42.90;97962.00;5008454;28;8846;-79
2023/10/20 06:22:36;;;;;;;;;10.40;8.80;;;;;18.97;42.98;97961.84;5015718;28;8865;-79
2023/10/20 06:25:12;;;;;;;;;10.40;10.40;;;;;18.99;43.10;97966.09;5016302;28;8885;-79
2023/10/20 06:27:45;;;;;;;;;12.60;10.00;;;;;19.02;43.09;97959.66;5067319;28;8876;-81
2023/10/20 06:30:22;;;;;;;;;11.60;9.80;;;;;19.09;42.81;97960.84;5069331;28;9716;-78
2023/10/20 06:33:11;;;;;;;;;9.60;8.40;;;;;19.18;42.59;97962.78;5061319;28;8896;-78
2023/10/20 06:35:50;;;;;;;;;11.80;10.00;;;;;19.30;42.33;97956.41;5070607;28;8869;-79
2023/10/20 06:38:25;;;;;;;;;12.60;11.00;;;;;19.50;42.21;97960.09;5069341;28;8874;-78
2023/10/20 06:40:56;;;;;;;;;12.60;10.00;;;;;19.55;42.04;97948.25;5088961;28;8862;-78
2023/10/20 06:43:25;;;;;;;;;12.60;11.00;;;;;19.72;41.69;97953.00;5076763;28;8885;-78
2023/10/20 06:45:57;;;;;;;;;9.00;8.40;;;;;19.77;41.66;97949.97;5082450;28;8951;-77
2023/10/20 06:48:26;;;;;;;;;9.40;9.40;;;;;19.96;40.93;97947.41;5069591;28;8899;-72
2023/10/20 06:50:56;;;;;;;;;9.60;9.60;;;;;19.99;41.19;97960.50;5055338;28;8834;-74
2023/10/20 06:53:25;;;;;;;;;9.00;8.80;;;;;20.05;41.11;97940.44;5067367;28;8874;-73
2023/10/20 06:55:54;;;;;;;;;10.80;9.20;;;;;20.19;40.99;97948.09;5068869;28;8884;-73
2023/10/20 06:58:44;;;;;;;;;8.40;8.40;;;;;20.33;40.56;97954.94;5068489;28;8839;-76
2023/10/20 07:01:13;;;;;;;;;10.00;8.40;;;;;20.31;40.32;97945.38;5083275;28;8889;-79
2023/10/20 07:03:43;;;;;;;;;9.00;8.80;;;;;20.35;40.75;97953.00;5068132;28;8932;-81
2023/10/20 07:06:12;;;;;;;;;9.80;8.40;;;;;20.54;40.24;97949.56;5054233;28;8831;-81
2023/10/20 07:08:41;;;;;;;;;9.80;8.80;;;;;20.68;40.23;97951.00;5054583;28;8854;-78
2023/10/20 07:11:11;;;;;;;;;9.00;9.00;;;;;20.74;39.72;97952.28;5069032;28;8838;-80
2023/10/20 07:13:40;;;;;;;;;10.40;9.80;;;;;20.76;40.18;97947.66;5068073;28;8999;-81
2023/10/20 07:16:11;;;;;;;;;7.80;7.80;;;;;20.68;39.99;97937.66;5069293;28;8854;-78
2023/10/20 07:18:40;;;;;;;;;11.00;10.40;;;;;20.88;39.92;97936.72;5067443;28;8862;-78
2023/10/20 07:21:10;;;;;;;;;10.00;7.80;;;;;20.98;39.65;97938.59;5067666;28;9760;-76
2023/10/20 07:23:38;;;;;;;;;7.00;7.00;;;;;21.07;39.89;97940.44;5068266;28;8862;-72
2023/10/20 07:26:07;;;;;;;;;9.20;9.20;;;;;21.25;39.18;97941.44;5068383;28;8885;-76
2023/10/20 07:28:36;;;;;;;;;11.00;10.80;;;;;21.32;38.99;97935.56;5066791;28;8862;-74
2023/10/20 07:31:12;;;;;;;;;8.80;8.80;;;;;21.36;39.08;97943.13;5068041;28;8893;-74
2023/10/20 07:33:41;;;;;;;;;13.00;11.80;;;;;21.45;39.12;97931.59;5067896;28;8897;-75
2023/10/20 07:36:10;;;;;;;;;8.40;8.40;;;;;21.54;38.83;97937.94;5066815;28;8939;-77
2023/10/20 07:38:39;;;;;;;;;10.80;9.40;;;;;21.58;38.77;97939.34;5045716;28;8865;-76
2023/10/20 07:41:12;;;;;;;;;12.80;12.20;;;;;21.70;38.46;97944.56;5050937;28;8858;-75
2023/10/20 07:43:42;;;;;;;;;12.00;12.00;;;;;21.72;38.53;97948.78;5032232;28;8854;-76
2023/10/20 07:46:17;;;;;;;;;12.00;12.00;;;;;21.87;38.86;97943.84;5067568;28;8846;-76
2023/10/20 07:48:46;;;;;;;;;12.00;12.00;;;;;21.79;38.39;97941.88;5062487;28;8872;-75
2023/10/20 07:51:15;;;;;;;;;10.00;10.00;;;;;21.76;38.63;97938.66;5031570;28;8858;-75
2023/10/20 07:53:44;;;;;;;;;10.00;10.00;;;;;21.82;38.60;97940.75;5068019;28;8977;-75
2023/10/20 07:56:13;;;;;;;;;11.40;9.80;;;;;21.78;38.74;97942.84;5040235;28;8963;-73
2023/10/20 07:58:42;;;;;;;;;10.00;10.00;;;;;21.69;38.79;97935.69;5066488;28;8850;-74
2023/10/20 08:01:12;;;;;;;;;10.40;10.40;;;;;21.68;38.92;97939.38;5067515;28;8882;-74
2023/10/20 08:03:47;;;;;;;;;11.80;11.00;;;;;21.61;39.12;97941.75;5067052;28;8968;-75
2023/10/20 08:06:17;;;;;;;;;11.80;10.60;;;;;21.71;39.21;97935.56;5067491;28;8850;-73
2023/10/20 08:08:46;;;;;;;;;10.20;10.20;;;;;21.73;38.91;97941.59;5060182;28;8864;-75
2023/10/20 08:11:15;;;;;;;;;10.40;8.60;;;;;21.66;39.35;97933.31;5061938;28;8963;-77
2023/10/20 08:13:50;;;;;;;;;12.60;10.20;;;;;21.71;39.11;97936.41;5046323;28;8937;-76
2023/10/20 08:16:21;;;;;;;;;9.80;9.80;;;;;21.73;38.99;97933.56;5047684;28;9054;-77
2023/10/20 08:18:51;;;;;;;;;12.40;10.40;;;;;21.77;39.14;97937.69;5047222;28;8873;-75
2023/10/20 08:21:26;;;;;;;;;9.20;9.00;;;;;21.81;38.67;97923.84;5032737;28;8846;-75
2023/10/20 08:23:54;;;;;;;;;10.80;9.80;;;;;21.96;38.91;97929.59;5065742;28;8838;-76
2023/10/20 08:26:23;;;;;;;;;11.40;10.20;;;;;21.93;38.95;97934.41;5067167;28;9623;-79
2023/10/20 08:28:52;;;;;;;;;11.00;9.00;;;;;22.02;38.80;97928.19;5066879;28;8850;-77
2023/10/20 08:31:22;;;;;;;;;10.60;9.20;;;;;22.12;38.69;97928.16;5066149;28;9715;-78
2023/10/20 08:33:52;;;;;;;;;11.60;9.80;;;;;22.26;38.63;97924.19;5067475;28;8888;-67
2023/10/20 08:36:22;;;;;;;;;8.60;8.20;;;;;22.29;38.58;97923.91;5066824;28;8881;-68
2023/10/20 08:38:52;;;;;;;;;11.00;10.80;;;;;22.44;38.45;97929.63;5050441;28;8850;-69
2023/10/20 08:41:22;;;;;;;;;11.40;11.00;;;;;22.50;38.53;97921.81;5055371;28;8858;-68
2023/10/20 08:43:52;;;;;;;;;8.80;8.80;;;;;22.59;38.43;97928.13;5065623;28;9706;-72
2023/10/20 08:46:23;;;;;;;;;11.80;11.80;;;;;22.80;38.03;97933.22;5067144;28;9004;-70
2023/10/20 08:48:54;;;;;;;;;10.40;10.00;;;;;22.92;37.75;97931.22;5049461;28;8879;-72
2023/10/20 08:51:24;;;;;;;;;12.20;11.20;;;;;22.97;37.90;97923.56;5067328;28;8865;-68
2023/10/20 08:53:53;;;;;;;;;14.60;12.60;;;;;23.16;37.65;97927.97;5066700;28;8929;-79
2023/10/20 08:56:22;;;;;;;;;10.20;10.20;;;;;23.35;37.06;97924.28;5066478;28;8862;-75
2023/10/20 08:58:51;;;;;;;;;12.60;12.00;;;;;23.43;36.78;97919.00;5069251;28;8871;-79
2023/10/20 09:01:20;;;;;;;;;11.00;9.80;;;;;23.50;36.20;97909.31;5069525;28;9632;-81
2023/10/20 09:03:50;;;;;;;;;11.20;11.20;;;;;23.66;36.71;97914.03;5034415;28;8855;-77
2023/10/20 09:06:25;;;;;;;;;13.20;11.80;;;;;23.78;36.09;97907.41;5069120;28;9014;-79
2023/10/20 09:08:54;;;;;;;;;14.40;11.00;;;;;23.87;35.54;97910.16;5067962;28;8953;-71
2023/10/20 09:11:29;;;;;;;;;10.80;9.80;;;;;23.88;35.76;97909.97;5050475;28;8934;-71
2023/10/20 09:14:00;;;;;;;;;10.60;9.00;;;;;23.92;35.69;97902.47;5046081;28;9000;-72
2023/10/20 09:16:30;;;;;;;;;12.40;11.80;;;;;24.16;35.89;97912.53;5055533;28;8889;-74
2023/10/20 09:18:59;;;;;;;;;12.00;12.00;;;;;24.02;35.81;97910.41;5066925;28;8839;-74
2023/10/20 09:21:29;;;;;;;;;12.80;10.80;;;;;24.18;35.79;97907.00;5049172;28;8962;-72
2023/10/20 09:23:59;;;;;;;;;11.80;11.80;;;;;24.35;35.22;97909.59;5015513;28;8905;-73
2023/10/20 09:26:33;;;;;;;;;13.40;13.40;;;;;24.38;35.60;97911.16;5061743;28;8848;-77
2023/10/20 09:29:05;;;;;;;;;14.80;12.40;;;;;24.53;35.24;97898.78;5070760;28;8984;-74
2023/10/20 09:31:38;;;;;;;;;13.80;12.80;;;;;24.58;34.79;97908.22;5069220;28;8855;-75
2023/10/20 09:34:07;;;;;;;;;10.40;10.40;;;;;24.64;34.57;97903.03;5070234;28;8912;-73
2023/10/20 09:36:41;;;;;;;;;13.40;13.40;;;;;24.77;34.88;97907.97;5070863;28;8850;-79
2023/10/20 09:39:16;;;;;;;;;14.60;12.60;;;;;24.86;34.31;97908.84;5070289;28;8977;-74
2023/10/20 09:41:49;;;;;;;;;13.60;13.60;;;;;25.05;34.56;97903.16;5080602;28;8873;-79
2023/10/20 09:44:23;;;;;;;;;14.20;14.20;;;;;25.19;34.41;97898.13;5032070;28;9009;-73
2023/10/20 09:46:56;;;;;;;;;15.00;14.60;;;;;25.22;33.89;97895.97;5050824;28;8853;-74
2023/10/20 09:49:26;;;;;;;;;12.80;11.60;;;;;25.28;33.57;97894.44;5051547;28;8875;-75
2023/10/20 09:51:57;;;;;;;;;19.60;15.40;;;;;25.33;33.67;97897.53;5069910;28;8898;-76
2023/10/20 09:54:28;;;;;;;;;15.60;12.80;;;;;25.24;32.89;97896.63;5067943;28;8915;-73
2023/10/20 09:56:58;;;;;;;;;18.00;16.20;;;;;25.47;33.16;97902.25;5070092;28;8866;-74
2023/10/20 09:59:30;;;;;;;;;16.00;13.80;;;;;25.57;32.34;97901.22;5048604;28;8872;-75
2023/10/20 10:02:00;;;;;;;;;18.20;16.40;;;;;25.52;32.20;97897.19;5068999;28;8866;-72
2023/10/20 10:04:33;;;;;;;;;14.80;14.20;;;;;25.63;32.11;97897.88;5069857;28;8854;-71
2023/10/20 10:07:05;;;;;;;;;17.60;15.60;;;;;25.38;32.29;97895.19;5069683;28;8870;-75
2023/10/20 10:09:38;;;;;;;;;15.20;14.20;;;;;25.40;31.99;97900.41;5068450;28;8854;-75
2023/10/20 10:12:14;;;;;;;;;17.80;15.80;;;;;25.50;32.23;97907.28;5069645;28;8862;-78
2023/10/20 10:14:43;;;;;;;;;18.80;17.80;;;;;25.43;31.71;97906.25;5068312;28;9590;-74
2023/10/20 10:17:12;;;;;;;;;16.60;16.20;;;;;25.55;31.49;97903.22;5050195;28;8897;-76
2023/10/20 10:19:50;;;;;;;;;21.60;18.40;;;;;25.62;31.55;97901.56;5069655;28;8874;-74
2023/10/20 10:22:27;;;;;;;;;19.80;17.80;;;;;25.66;31.99;97901.06;5069535;28;8862;-75
2023/10/20 10:24:57;;;;;;;;;18.20;18.20;;;;;25.64;31.43;97897.69;5069007;28;8870;-75
2023/10/20 10:27:27;;;;;;;;;17.00;14.00;;;;;25.69;31.53;97908.78;5068687;28;10049;-73
2023/10/20 10:30:00;;;;;;;;;17.60;17.60;;;;;25.93;31.96;97899.03;5068981;28;8984;-76
2023/10/20 10:32:32;;;;;;;;;18.00;16.20;;;;;26.11;31.75;97898.00;5067609;28;8979;-74
2023/10/20 10:35:03;;;;;;;;;15.80;14.80;;;;;26.11;31.30;97885.34;5060663;28;8862;-75
2023/10/20 10:37:37;;;;;;;;;11.80;11.00;;;;;26.14;31.66;97882.31;5051113;28;8881;-76
2023/10/20 10:40:11;;;;;;;;;15.00;15.00;;;;;26.21;32.14;97883.31;5032830;28;8902;-74
2023/10/20 10:42:42;;;;;;;;;14.60;13.40;;;;;26.13;32.38;97882.50;5051768;28;8874;-72
2023/10/20 10:45:21;;;;;;;;;15.00;13.40;;;;;26.15;32.27;97878.59;5068588;28;8866;-75
2023/10/20 10:47:51;;;;;;;;;9.40;9.00;;;;;26.00;32.90;97867.72;5068747;28;8961;-75
2023/10/20 10:50:21;;;;;;;;;16.80;16.80;;;;;26.01;32.53;97872.09;5069164;28;8854;-72
2023/10/20 10:52:53;;;;;;;;;13.60;13.60;;;;;26.07;32.38;97874.09;5066969;28;8851;-81
2023/10/20 10:55:22;;;;;;;;;18.60;16.60;;;;;26.03;32.46;97870.06;5074598;28;8951;-81
2023/10/20 10:57:52;;;;;;;;;15.20;13.40;;;;;25.99;32.56;97862.50;5017172;28;8940;-73
2023/10/20 11:00:21;;;;;;;;;16.60;16.40;;;;;26.03;32.21;97858.47;5023205;28;8994;-82
2023/10/20 11:02:52;;;;;;;;;17.20;16.20;;;;;25.94;32.45;97862.19;5026495;28;8898;-70
2023/10/20 11:05:22;;;;;;;;;15.40;15.00;;;;;25.88;32.11;97861.81;5020469;28;8876;-75
2023/10/20 11:08:03;;;;;;;;;16.20;15.60;;;;;25.81;32.32;97854.59;5015717;28;8836;-72
2023/10/20 11:10:34;;;;;;;;;13.20;12.00;;;;;25.76;32.63;97852.44;5026218;28;8998;-73
2023/10/20 11:13:08;;;;;;;;;16.80;14.00;;;;;25.78;31.89;97854.97;5024906;28;8859;-73
2023/10/20 11:15:38;;;;;;;;;17.40;16.60;;;;;25.89;32.47;97851.91;5026330;28;8863;-72
2023/10/20 11:18:08;;;;;;;;;14.80;13.80;;;;;25.93;32.31;97858.66;5026471;28;9679;-72
2023/10/20 11:20:43;;;;;;;;;16.20;14.20;;;;;26.00;32.17;97856.97;5026267;28;8879;-72
2023/10/20 11:23:14;;;;;;;;;15.00;14.00;;;;;26.00;32.31;97848.88;5024084;28;8837;-76
2023/10/20 11:25:43;;;;;;;;;13.80;13.00;;;;;26.09;32.38;97847.81;5026490;28;8861;-74
2023/10/20 11:28:13;;;;;;;;;13.60;12.40;;;;;26.20;31.87;97837.72;4993496;28;8970;-75
2023/10/20 11:30:45;;;;;;;;;14.00;13.20;;;;;26.42;31.96;97836.09;5025766;28;8869;-75
2023/10/20 11:33:15;;;;;;;;;15.00;14.80;;;;;26.42;31.92;97845.03;5025225;28;8962;-78
2023/10/20 11:35:46;;;;;;;;;14.40;13.60;;;;;26.47;31.87;97849.91;5038817;28;8870;-74
2023/10/20 11:38:16;;;;;;;;;15.80;14.80;;;;;26.51;31.52;97853.09;5021371;28;8842;-70
2023/10/20 11:40:49;;;;;;;;;14.20;13.20;;;;;26.57;31.72;97844.28;4997098;28;8869;-74
2023/10/20 11:43:18;;;;;;;;;12.80;12.80;;;;;26.65;31.70;97834.31;5076537;28;8857;-75
2023/10/20 11:45:50;;;;;;;;;15.40;14.20;;;;;26.62;31.47;97841.91;5065882;28;8839;-79
2023/10/20 11:48:20;;;;;;;;;15.80;14.80;;;;;26.71;31.45;97830.06;5066929;28;8909;-74
2023/10/20 11:50:49;;;;;;;;;16.00;15.60;;;;;26.79;31.57;97837.25;5065823;28;8878;-77
2023/10/20 11:53:20;;;;;;;;;16.80;16.20;;;;;26.90;31.13;97822.53;5061513;28;9000;-77
2023/10/20 11:55:49;;;;;;;;;13.00;11.80;;;;;26.94;31.29;97821.16;5026252;28;8862;-74
2023/10/20 11:58:18;;;;;;;;;19.40;15.40;;;;;27.06;31.16;97817.03;5066348;28;8830;-75
2023/10/20 12:00:47;;;;;;;;;11.60;11.40;;;;;27.15;30.74;97815.97;5065662;28;8911;-75
2023/10/20 12:03:16;;;;;;;;;13.80;13.00;;;;;27.17;30.45;97810.38;5067605;28;8862;-73